createdAt,value
2019-02-26T00:00:22.274Z,8.75
2019-02-26T00:03:01.767Z,8.43
2019-02-26T00:05:32.584Z,9.50
2019-02-26T00:08:04.313Z,8.60
2019-02-26T00:10:38.839Z,9.10
2019-02-26T00:13:10.151Z,8.63
2019-02-26T00:15:43.276Z,8.50
2019-02-26T00:18:16.813Z,9.28
2019-02-26T00:20:49.675Z,8.90
2019-02-26T00:23:23.597Z,8.95
2019-02-26T00:25:55.387Z,8.85
2019-02-26T00:28:27.703Z,9.45
2019-02-26T00:31:01.648Z,9.05
2019-02-26T00:33:33.588Z,9.53
2019-02-26T00:36:07.143Z,10.43
2019-02-26T00:38:39.991Z,9.00
2019-02-26T00:41:13.405Z,8.60
2019-02-26T00:43:45.379Z,8.80
2019-02-26T00:46:17.422Z,9.58
2019-02-26T00:48:49.773Z,9.70
2019-02-26T00:51:23.144Z,8.40
2019-02-26T00:53:57.332Z,9.55
2019-02-26T00:56:29.842Z,8.35
2019-02-26T00:59:02.437Z,9.95
2019-02-26T01:01:34.484Z,9.23
2019-02-26T01:04:06.543Z,9.23
2019-02-26T01:06:38.627Z,8.85
2019-02-26T01:09:12.754Z,9.25
2019-02-26T01:11:45.186Z,9.38
2019-02-26T01:14:20.223Z,8.95
2019-02-26T01:16:52.298Z,9.20
2019-02-26T01:19:24.557Z,9.03
2019-02-26T01:21:56.593Z,8.93
2019-02-26T01:24:30.443Z,8.85
2019-02-26T01:27:02.290Z,8.85
2019-02-26T01:29:34.272Z,7.78
2019-02-26T01:32:08.854Z,8.85
2019-02-26T01:34:40.491Z,8.25
2019-02-26T01:37:13.766Z,9.08
2019-02-26T01:39:47.234Z,9.10
2019-02-26T01:42:22.439Z,9.43
2019-02-26T01:44:52.903Z,9.03
2019-02-26T01:47:26.366Z,9.60
2019-02-26T01:49:59.362Z,9.25
2019-02-26T01:52:32.286Z,9.73
2019-02-26T01:55:04.451Z,7.80
2019-02-26T01:57:36.515Z,8.80
2019-02-26T02:00:14.989Z,8.43
2019-02-26T02:02:47.147Z,9.00
2019-02-26T02:05:21.431Z,8.95
2019-02-26T02:07:53.692Z,9.35
2019-02-26T02:10:26.815Z,9.00
2019-02-26T02:13:00.299Z,7.95
2019-02-26T02:15:32.551Z,8.83
2019-02-26T02:18:06.199Z,8.75
2019-02-26T02:20:38.209Z,8.73
2019-02-26T02:23:10.167Z,9.00
2019-02-26T02:25:43.418Z,9.25
2019-02-26T02:28:19.577Z,8.80
2019-02-26T02:30:50.947Z,8.85
2019-02-26T02:33:24.295Z,9.65
2019-02-26T02:35:56.647Z,9.45
2019-02-26T02:38:28.546Z,9.23
2019-02-26T02:41:00.726Z,9.28
2019-02-26T02:43:32.825Z,9.58
2019-02-26T02:46:04.853Z,7.40
2019-02-26T02:48:36.827Z,8.35
2019-02-26T02:51:13.151Z,9.00
2019-02-26T02:53:45.218Z,8.28
2019-02-26T02:56:17.983Z,9.38
2019-02-26T02:58:51.603Z,8.03
2019-02-26T03:01:28.418Z,8.18
2019-02-26T03:04:00.544Z,8.73
2019-02-26T03:06:32.504Z,8.05
2019-02-26T03:09:15.284Z,8.83
2019-02-26T03:11:49.414Z,8.70
2019-02-26T03:14:20.828Z,8.45
2019-02-26T03:16:53.519Z,10.15
2019-02-26T03:19:25.881Z,7.97
2019-02-26T03:21:57.903Z,7.60
2019-02-26T03:24:31.430Z,8.28
2019-02-26T03:27:03.734Z,7.95
2019-02-26T03:29:35.641Z,8.20
2019-02-26T03:32:07.663Z,9.63
2019-02-26T03:34:39.878Z,8.50
2019-02-26T03:37:11.960Z,9.35
2019-02-26T03:39:44.143Z,9.58
2019-02-26T03:42:18.575Z,8.73
2019-02-26T03:44:50.202Z,8.83
2019-02-26T03:47:22.195Z,8.45
2019-02-26T03:49:54.145Z,9.68
2019-02-26T03:52:28.917Z,8.50
2019-02-26T03:55:02.945Z,9.05
2019-02-26T03:57:33.938Z,8.75
2019-02-26T04:00:08.775Z,8.60
2019-02-26T04:02:43.347Z,8.53
2019-02-26T04:05:14.486Z,8.43
2019-02-26T04:07:51.752Z,8.50
2019-02-26T04:10:20.138Z,9.08
2019-02-26T04:12:55.306Z,9.33
2019-02-26T04:15:27.910Z,8.63
2019-02-26T04:17:59.608Z,8.68
2019-02-26T04:20:31.541Z,7.85
2019-02-26T04:23:03.523Z,9.78
2019-02-26T04:26:40.297Z,9.88
2019-02-26T04:29:53.021Z,9.10
2019-02-26T04:33:09.570Z,9.03
2019-02-26T04:36:14.882Z,9.73
2019-02-26T04:40:12.051Z,9.43
2019-02-26T04:43:07.325Z,8.90
2019-02-26T04:46:20.073Z,10.75
2019-02-26T04:48:53.259Z,8.98
2019-02-26T04:51:25.139Z,9.05
2019-02-26T04:53:59.516Z,8.55
2019-02-26T04:56:33.792Z,9.98
2019-02-26T04:59:07.028Z,9.23
2019-02-26T05:01:38.554Z,9.90
2019-02-26T05:04:10.743Z,10.15
2019-02-26T05:06:43.060Z,8.83
2019-02-26T05:09:15.105Z,12.70
2019-02-26T05:11:47.125Z,11.33
2019-02-26T05:14:21.431Z,10.72
2019-02-26T05:16:53.096Z,11.05
2019-02-26T05:19:25.054Z,11.00
2019-02-26T05:21:59.333Z,9.90
2019-02-26T05:24:30.881Z,10.50
2019-02-26T05:27:15.660Z,10.85
2019-02-26T05:29:49.154Z,10.28
2019-02-26T05:32:24.102Z,9.23
2019-02-26T05:34:55.084Z,9.63
2019-02-26T05:37:29.168Z,11.73
2019-02-26T05:40:00.769Z,10.40
2019-02-26T05:42:32.737Z,10.38
2019-02-26T05:45:06.869Z,10.23
2019-02-26T05:47:38.657Z,9.25
2019-02-26T05:50:16.213Z,9.38
2019-02-26T05:52:44.326Z,10.53
2019-02-26T05:55:17.550Z,10.48
2019-02-26T05:57:50.017Z,9.78
2019-02-26T06:00:25.423Z,10.35
2019-02-26T06:02:56.060Z,10.15
2019-02-26T06:05:28.211Z,9.45
2019-02-26T06:08:00.433Z,11.28
2019-02-26T06:10:32.727Z,10.40
2019-02-26T06:13:05.386Z,10.20
2019-02-26T06:15:38.488Z,9.85
2019-02-26T06:18:10.551Z,11.25
2019-02-26T06:20:42.746Z,11.08
2019-02-26T06:23:14.916Z,11.12
2019-02-26T06:25:46.923Z,11.20
2019-02-26T06:28:20.535Z,11.93
2019-02-26T06:30:52.621Z,12.05
2019-02-26T06:33:26.422Z,11.20
2019-02-26T06:35:59.841Z,11.38
2019-02-26T06:38:33.295Z,11.40
2019-02-26T06:41:06.283Z,10.13
2019-02-26T06:43:39.942Z,11.80
2019-02-26T06:46:14.151Z,10.75
2019-02-26T06:48:46.368Z,11.03
2019-02-26T06:51:19.148Z,10.23
2019-02-26T06:53:54.091Z,12.53
2019-02-26T06:56:25.596Z,11.55
2019-02-26T06:59:02.984Z,12.40
2019-02-26T07:01:37.273Z,12.40
2019-02-26T07:04:12.286Z,13.03
2019-02-26T07:06:42.934Z,12.82
2019-02-26T07:09:16.413Z,13.32
2019-02-26T07:11:48.764Z,13.40
2019-02-26T07:14:22.549Z,12.63
2019-02-26T07:16:56.538Z,12.23
2019-02-26T07:19:30.721Z,12.65
2019-02-26T07:22:02.562Z,14.43
2019-02-26T07:24:34.674Z,14.45
2019-02-26T07:27:08.907Z,14.35
2019-02-26T07:29:42.519Z,15.68
2019-02-26T07:32:15.425Z,15.95
2019-02-26T07:34:51.660Z,14.03
2019-02-26T07:37:22.050Z,15.58
2019-02-26T07:39:54.320Z,14.95
2019-02-26T07:42:27.120Z,14.75
2019-02-26T07:44:59.317Z,15.20
2019-02-26T07:47:33.794Z,14.60
2019-02-26T07:50:06.786Z,14.75
2019-02-26T07:52:39.217Z,14.23
2019-02-26T07:55:14.845Z,13.65
2019-02-26T07:57:48.892Z,13.85
2019-02-26T08:00:23.168Z,13.05
2019-02-26T08:02:57.844Z,14.10
2019-02-26T08:05:29.082Z,12.98
2019-02-26T08:08:01.471Z,13.90
2019-02-26T08:10:37.233Z,14.45
2019-02-26T08:13:08.050Z,17.00
2019-02-26T08:15:40.187Z,14.05
2019-02-26T08:18:12.424Z,13.55
2019-02-26T08:20:44.519Z,13.45
2019-02-26T08:23:17.544Z,14.00
2019-02-26T08:25:52.367Z,14.28
2019-02-26T08:28:24.871Z,14.70
2019-02-26T08:30:57.280Z,14.75
2019-02-26T08:33:29.409Z,15.65
2019-02-26T08:36:01.566Z,13.98
2019-02-26T08:38:34.698Z,14.35
2019-02-26T08:41:07.430Z,15.13
2019-02-26T08:43:42.180Z,15.75
2019-02-26T08:46:14.175Z,13.10
2019-02-26T08:48:48.375Z,13.48
2019-02-26T08:51:23.347Z,12.93
2019-02-26T08:53:57.177Z,13.83
2019-02-26T08:56:33.281Z,13.48
2019-02-26T08:59:03.610Z,13.80
2019-02-26T09:01:35.707Z,11.93
2019-02-26T09:04:07.772Z,13.40
2019-02-26T09:06:39.650Z,13.45
2019-02-26T09:09:11.869Z,14.15
2019-02-26T09:11:43.971Z,13.38
2019-02-26T09:14:16.697Z,14.35
2019-02-26T09:16:51.966Z,14.03
2019-02-26T09:19:24.681Z,14.33
2019-02-26T09:21:56.381Z,13.05
2019-02-26T09:24:28.383Z,12.95
2019-02-26T09:27:03.331Z,14.35
2019-02-26T09:29:36.647Z,12.55
2019-02-26T09:32:09.280Z,13.60
2019-02-26T09:34:42.134Z,13.43
2019-02-26T09:37:14.192Z,13.58
2019-02-26T09:39:46.217Z,15.13
2019-02-26T09:42:21.131Z,13.83
2019-02-26T09:44:55.350Z,12.50
2019-02-26T09:47:32.829Z,14.07
2019-02-26T09:50:03.629Z,13.83
2019-02-26T09:52:35.533Z,12.80
2019-02-26T09:55:10.670Z,14.10
2019-02-26T09:57:42.777Z,13.70
2019-02-26T10:00:20.245Z,13.48
2019-02-26T10:02:52.291Z,12.82
2019-02-26T10:05:24.255Z,13.03
2019-02-26T10:07:59.304Z,13.53
2019-02-26T10:10:31.134Z,13.20
2019-02-26T10:13:04.784Z,15.58
2019-02-26T10:15:39.321Z,13.18
2019-02-26T10:18:10.884Z,13.70
2019-02-26T10:20:45.177Z,12.30
2019-02-26T10:23:16.842Z,15.03
2019-02-26T10:25:53.062Z,13.38
2019-02-26T10:28:22.744Z,13.90
2019-02-26T10:30:56.968Z,13.28
2019-02-26T10:33:28.522Z,14.03
2019-02-26T10:36:00.523Z,14.25
2019-02-26T10:38:34.257Z,14.65
2019-02-26T10:41:07.281Z,14.30
2019-02-26T10:43:40.100Z,13.48
2019-02-26T10:46:12.249Z,13.00
2019-02-26T10:48:47.946Z,13.58
2019-02-26T10:51:26.209Z,12.15
2019-02-26T10:53:57.506Z,14.15
2019-02-26T10:56:30.715Z,14.00
2019-02-26T10:59:05.447Z,12.58
2019-02-26T11:01:36.608Z,12.50
2019-02-26T11:04:08.860Z,14.38
2019-02-26T11:06:42.305Z,13.03
2019-02-26T11:09:18.216Z,12.28
2019-02-26T11:11:48.916Z,14.43
2019-02-26T11:14:21.329Z,12.55
2019-02-26T11:16:53.678Z,12.78
2019-02-26T11:19:27.316Z,12.70
2019-02-26T11:22:00.807Z,10.82
2019-02-26T11:24:36.089Z,12.10
2019-02-26T11:27:07.801Z,11.60
2019-02-26T11:29:40.745Z,11.95
2019-02-26T11:32:13.483Z,11.22
2019-02-26T11:34:46.689Z,11.50
2019-02-26T11:37:20.324Z,9.80
2019-02-26T11:39:54.993Z,10.45
2019-02-26T11:42:28.664Z,8.60
2019-02-26T11:45:00.282Z,10.53
2019-02-26T11:47:34.578Z,8.95
2019-02-26T11:50:09.218Z,8.05
2019-02-26T11:52:54.321Z,10.63
2019-02-26T11:55:26.159Z,9.43
2019-02-26T11:57:57.658Z,8.33
2019-02-26T12:00:45.504Z,6.58
2019-02-26T12:03:17.907Z,4.22
2019-02-26T12:05:50.935Z,6.42
2019-02-26T12:08:25.168Z,5.92
2019-02-26T12:11:01.117Z,4.55
2019-02-26T12:13:30.642Z,4.22
2019-02-26T12:16:02.758Z,5.58
2019-02-26T12:18:36.812Z,4.58
2019-02-26T12:21:12.229Z,5.78
2019-02-26T12:23:46.391Z,5.90
2019-02-26T12:26:19.201Z,5.45
2019-02-26T12:28:52.386Z,5.42
2019-02-26T12:31:27.565Z,5.67
2019-02-26T12:33:58.620Z,5.85
2019-02-26T12:36:32.663Z,6.80
2019-02-26T12:39:05.639Z,5.60
2019-02-26T12:41:41.755Z,6.17
2019-02-26T12:44:15.709Z,5.58
2019-02-26T12:46:47.821Z,5.83
2019-02-26T12:49:22.374Z,4.83
2019-02-26T12:51:56.766Z,5.10
2019-02-26T12:54:30.963Z,4.80
2019-02-26T12:57:04.282Z,4.95
2019-02-26T12:59:35.912Z,5.20
2019-02-26T13:02:10.083Z,4.90
2019-02-26T13:04:44.158Z,5.20
2019-02-26T13:07:15.383Z,5.20
2019-02-26T13:12:24.009Z,5.80
2019-02-26T13:15:02.276Z,5.70
2019-02-26T13:17:32.065Z,5.50
2019-02-26T13:20:05.978Z,6.40
2019-02-26T13:22:35.859Z,6.35
2019-02-26T13:25:13.328Z,6.15
2019-02-26T13:27:43.671Z,5.92
2019-02-26T13:30:20.132Z,6.28
2019-02-26T13:32:58.074Z,6.45
2019-02-26T13:35:26.072Z,6.87
2019-02-26T13:37:58.243Z,5.62
2019-02-26T13:43:07.843Z,6.03
2019-02-26T13:45:40.029Z,6.55
2019-02-26T13:48:12.082Z,6.10
2019-02-26T13:50:44.207Z,6.75
2019-02-26T13:53:16.224Z,5.58
2019-02-26T13:55:48.290Z,5.90
2019-02-26T13:58:20.419Z,5.10
2019-02-26T14:00:52.513Z,5.90
2019-02-26T14:03:24.781Z,5.75
2019-02-26T14:05:56.849Z,4.70
2019-02-26T14:08:28.891Z,6.47
2019-02-26T14:11:01.089Z,5.55
2019-02-26T14:13:33.103Z,5.05
2019-02-26T14:16:05.218Z,6.42
2019-02-26T14:18:37.306Z,6.45
2019-02-26T14:21:09.643Z,5.90
2019-02-26T14:23:44.378Z,6.22
2019-02-26T14:26:16.380Z,6.20
2019-02-26T14:28:48.427Z,5.70
2019-02-26T14:31:20.553Z,5.53
2019-02-26T14:33:52.565Z,6.30
2019-02-26T14:36:24.594Z,5.80
2019-02-26T14:38:56.695Z,6.03
2019-02-26T14:41:28.826Z,6.30
2019-02-26T14:44:00.767Z,6.00
2019-02-26T14:46:32.678Z,6.60
2019-02-26T14:49:05.952Z,6.92
2019-02-26T14:51:38.562Z,7.10
2019-02-26T14:54:10.743Z,6.35
2019-02-26T14:56:42.698Z,7.10
2019-02-26T14:59:14.795Z,7.50
2019-02-26T15:01:48.718Z,7.60
2019-02-26T15:04:20.868Z,8.90
2019-02-26T15:06:52.861Z,7.58
2019-02-26T15:09:24.776Z,8.20
2019-02-26T15:11:57.065Z,7.58
2019-02-26T15:14:28.957Z,7.92
2019-02-26T15:17:01.240Z,7.92
2019-02-26T15:19:33.259Z,8.68
2019-02-26T15:22:05.278Z,10.50
2019-02-26T15:24:37.194Z,9.98
2019-02-26T15:27:09.180Z,8.83
2019-02-26T15:29:41.207Z,9.53
2019-02-26T15:32:13.468Z,8.73
2019-02-26T15:34:45.758Z,10.60
2019-02-26T15:37:17.857Z,9.83
2019-02-26T15:39:51.293Z,9.23
2019-02-26T15:42:23.499Z,10.13
2019-02-26T15:44:57.658Z,10.23
2019-02-26T15:47:30.494Z,10.72
2019-02-26T15:50:03.103Z,9.68
2019-02-26T15:52:35.079Z,10.70
2019-02-26T15:55:09.445Z,9.48
2019-02-26T15:57:41.686Z,11.12
2019-02-26T16:00:19.893Z,10.85
2019-02-26T16:02:52.655Z,9.25
2019-02-26T16:05:25.185Z,9.85
2019-02-26T16:07:57.324Z,10.38
2019-02-26T16:10:29.563Z,9.13
2019-02-26T16:13:07.479Z,9.20
2019-02-26T16:15:39.514Z,9.85
2019-02-26T16:18:11.629Z,9.30
2019-02-26T16:20:43.687Z,9.45
2019-02-26T16:23:16.741Z,8.45
2019-02-26T16:25:48.801Z,9.73
2019-02-26T16:28:20.960Z,9.20
2019-02-26T16:30:55.856Z,9.60
2019-02-26T16:33:27.704Z,9.18
2019-02-26T16:35:59.868Z,9.45
2019-02-26T16:38:31.844Z,11.10
2019-02-26T16:41:04.945Z,11.88
2019-02-26T16:43:37.496Z,12.13
2019-02-26T16:46:09.584Z,12.00
2019-02-26T16:48:41.806Z,11.73
2019-02-26T16:51:13.875Z,12.03
2019-02-26T16:53:45.928Z,12.78
2019-02-26T16:56:21.447Z,10.98
2019-02-26T16:58:51.680Z,10.98
2019-02-26T17:01:23.845Z,10.63
2019-02-26T17:03:56.041Z,8.98
2019-02-26T17:06:28.186Z,10.05
2019-02-26T17:09:00.369Z,11.15
2019-02-26T17:11:34.108Z,9.43
2019-02-26T17:14:06.256Z,9.55
2019-02-26T17:16:38.388Z,10.08
2019-02-26T17:19:10.638Z,10.13
2019-02-26T17:21:42.876Z,9.05
2019-02-26T17:24:14.888Z,9.95
2019-02-26T17:26:47.082Z,10.43
2019-02-26T17:29:19.746Z,11.18
2019-02-26T17:31:52.073Z,10.63
2019-02-26T17:34:24.052Z,10.45
2019-02-26T17:36:56.045Z,11.60
2019-02-26T17:39:28.727Z,11.53
2019-02-26T17:42:00.904Z,10.75
2019-02-26T17:44:32.931Z,11.20
2019-02-26T17:47:05.276Z,11.83
2019-02-26T17:49:37.283Z,10.75
2019-02-26T17:52:09.343Z,11.00
2019-02-26T17:54:41.411Z,11.90
2019-02-26T17:57:13.495Z,10.95
2019-02-26T17:59:45.610Z,11.88
2019-02-26T18:02:17.756Z,18.85
2019-02-26T18:04:49.753Z,15.05
2019-02-26T18:07:22.968Z,11.90
2019-02-26T18:09:55.236Z,11.25
2019-02-26T18:12:33.272Z,11.30
2019-02-26T18:15:05.920Z,13.22
2019-02-26T18:17:38.425Z,12.18
2019-02-26T18:20:14.170Z,11.20
2019-02-26T18:22:51.970Z,11.63
2019-02-26T18:25:27.360Z,10.95
2019-02-26T18:28:01.828Z,11.53
2019-02-26T18:30:38.721Z,11.38
2019-02-26T18:33:12.153Z,11.03
2019-02-26T18:35:53.248Z,13.58
2019-02-26T18:38:30.574Z,12.23
2019-02-26T18:41:05.892Z,12.15
2019-02-26T18:43:41.043Z,9.88
2019-02-26T18:46:15.717Z,11.57
2019-02-26T18:48:48.676Z,11.30
2019-02-26T18:51:21.530Z,10.72
2019-02-26T18:53:53.651Z,10.55
2019-02-26T18:56:25.900Z,10.48
2019-02-26T18:58:57.915Z,11.57
2019-02-26T19:01:30.884Z,10.63
2019-02-26T19:04:03.425Z,11.05
2019-02-26T19:06:35.664Z,11.57
2019-02-26T19:09:11.500Z,11.18
2019-02-26T19:11:43.418Z,11.97
2019-02-26T19:14:16.182Z,11.90
2019-02-26T19:16:48.834Z,11.50
2019-02-26T19:19:21.457Z,11.18
2019-02-26T19:21:54.180Z,11.65
2019-02-26T19:24:27.209Z,12.18
2019-02-26T19:26:59.395Z,11.45
2019-02-26T19:29:32.050Z,10.45
2019-02-26T19:32:04.130Z,13.15
2019-02-26T19:34:36.197Z,11.28
2019-02-26T19:37:08.437Z,13.25
2019-02-26T19:39:40.758Z,12.40
2019-02-26T19:42:12.931Z,12.05
2019-02-26T19:44:44.932Z,11.70
2019-02-26T19:47:17.622Z,13.03
2019-02-26T19:49:49.762Z,13.22
2019-02-26T19:52:21.849Z,13.53
2019-02-26T19:54:54.127Z,11.48
2019-02-26T19:57:27.626Z,12.10
2019-02-26T20:00:00.889Z,12.68
2019-02-26T20:02:34.546Z,11.25
2019-02-26T20:05:09.506Z,12.03
2019-02-26T20:07:44.191Z,11.90
2019-02-26T20:10:17.373Z,12.90
2019-02-26T20:12:49.929Z,12.50
2019-02-26T20:15:23.863Z,11.75
2019-02-26T20:17:56.074Z,10.40
2019-02-26T20:20:28.311Z,11.50
2019-02-26T20:23:00.359Z,12.88
2019-02-26T20:25:32.452Z,11.80
2019-02-26T20:28:05.607Z,11.38
2019-02-26T20:30:38.168Z,11.10
2019-02-26T20:33:10.403Z,11.93
2019-02-26T20:35:45.155Z,12.55
2019-02-26T20:38:16.275Z,11.50
2019-02-26T20:40:48.939Z,10.88
2019-02-26T20:43:21.534Z,10.90
2019-02-26T20:45:53.523Z,11.93
2019-02-26T20:48:25.530Z,12.65
2019-02-26T20:50:57.619Z,11.10
2019-02-26T20:53:29.668Z,10.68
2019-02-26T20:56:01.708Z,10.80
2019-02-26T20:58:34.979Z,10.88
2019-02-26T21:01:07.438Z,10.98
2019-02-26T21:03:39.563Z,12.10
2019-02-26T21:06:11.974Z,11.03
2019-02-26T21:08:45.104Z,12.58
2019-02-26T21:11:22.487Z,13.00
2019-02-26T21:13:51.766Z,11.35
2019-02-26T21:16:23.852Z,12.60
2019-02-26T21:18:55.879Z,12.45
2019-02-26T21:21:28.519Z,14.65
2019-02-26T21:24:01.329Z,14.65
2019-02-26T21:26:33.451Z,14.33
2019-02-26T21:29:06.430Z,12.55
2019-02-26T21:31:38.492Z,14.18
2019-02-26T21:34:11.748Z,14.33
2019-02-26T21:36:43.693Z,13.58
2019-02-26T21:39:15.671Z,15.05
2019-02-26T21:41:47.908Z,14.78
2019-02-26T21:44:20.150Z,14.45
2019-02-26T21:46:53.715Z,14.03
2019-02-26T21:49:26.659Z,14.25
2019-02-26T21:51:59.732Z,13.15
2019-02-26T21:54:32.306Z,12.88
2019-02-26T21:57:05.957Z,13.85
2019-02-26T21:59:38.135Z,12.25
2019-02-26T22:02:10.480Z,14.50
2019-02-26T22:04:42.735Z,13.25
2019-02-26T22:07:16.814Z,12.75
2019-02-26T22:09:49.040Z,11.88
2019-02-26T22:12:24.115Z,12.68
2019-02-26T22:14:57.296Z,12.95
2019-02-26T22:17:29.945Z,12.82
2019-02-26T22:20:02.862Z,11.80
2019-02-26T22:22:35.554Z,13.28
2019-02-26T22:25:09.853Z,13.13
2019-02-26T22:27:42.462Z,14.10
2019-02-26T22:30:16.205Z,13.80
2019-02-26T22:32:48.459Z,13.72
2019-02-26T22:35:20.686Z,13.38
2019-02-26T22:37:53.373Z,12.35
2019-02-26T22:40:28.937Z,12.73
2019-02-26T22:42:59.241Z,12.58
2019-02-26T22:45:32.204Z,13.13
2019-02-26T22:48:04.703Z,13.38
2019-02-26T22:50:36.936Z,15.10
2019-02-26T22:53:09.072Z,13.60
2019-02-26T22:55:41.215Z,13.68
2019-02-26T22:58:13.111Z,13.90
2019-02-26T23:01:36.339Z,13.90
2019-02-26T23:04:07.224Z,14.50
2019-02-26T23:06:39.750Z,14.87
2019-02-26T23:09:17.874Z,11.97
2019-02-26T23:11:50.613Z,14.65
2019-02-26T23:14:23.073Z,13.32
2019-02-26T23:16:55.484Z,13.45
2019-02-26T23:19:27.819Z,13.18
2019-02-26T23:22:00.019Z,14.38
2019-02-26T23:24:33.082Z,14.60
2019-02-26T23:27:05.492Z,14.60
2019-02-26T23:29:41.098Z,14.55
2019-02-26T23:32:13.363Z,12.93
2019-02-26T23:35:02.086Z,12.35
2019-02-26T23:37:35.223Z,14.20
2019-02-26T23:40:08.318Z,13.78
2019-02-26T23:42:40.920Z,12.50
2019-02-26T23:45:13.671Z,13.20
2019-02-26T23:47:45.746Z,12.55
2019-02-26T23:50:18.029Z,12.68
2019-02-26T23:52:50.315Z,13.45
2019-02-26T23:55:22.426Z,13.38
2019-02-26T23:57:57.714Z,12.15
